sensor_id;sensor_type;location;lat;lon;timestamp;pressure;altitude;pressure_sealevel;temperature;humidity
62055;BME280;48653;51.742;-1.256;2023-03-11T00:03:45;100345.07;;;1.68;45.46
62055;BME280;48653;51.742;-1.256;2023-03-11T00:06:10;100345.53;;;1.74;45.74
62055;BME280;48653;51.742;-1.256;2023-03-11T00:08:36;100346.72;;;1.78;45.76
62055;BME280;48653;51.742;-1.256;2023-03-11T00:11:01;100348.62;;;1.82;45.73
62055;BME280;48653;51.742;-1.256;2023-03-11T00:13:28;100343.48;;;1.36;46.26
62055;BME280;48653;51.742;-1.256;2023-03-11T00:15:54;100342.35;;;1.73;45.88
62055;BME280;48653;51.742;-1.256;2023-03-11T00:18:18;100341.37;;;1.42;46.08
62055;BME280;48653;51.742;-1.256;2023-03-11T00:20:45;100341.18;;;1.64;45.91
62055;BME280;48653;51.742;-1.256;2023-03-11T00:23:12;100344.43;;;0.98;46.85
62055;BME280;48653;51.742;-1.256;2023-03-11T00:25:36;100335.41;;;1.22;46.57
62055;BME280;48653;51.742;-1.256;2023-03-11T00:28:00;100326.98;;;1.32;46.08
62055;BME280;48653;51.742;-1.256;2023-03-11T00:30:26;100318.66;;;1.58;45.99
62055;BME280;48653;51.742;-1.256;2023-03-11T00:32:51;100320.33;;;1.24;46.08
62055;BME280;48653;51.742;-1.256;2023-03-11T00:35:17;100324.23;;;1.29;45.91
62055;BME280;48653;51.742;-1.256;2023-03-11T00:37:41;100327.26;;;1.56;46.39
62055;BME280;48653;51.742;-1.256;2023-03-11T00:40:11;100329.54;;;1.19;46.46
62055;BME280;48653;51.742;-1.256;2023-03-11T00:42:31;100325.66;;;1.47;46.24
62055;BME280;48653;51.742;-1.256;2023-03-11T00:44:57;100329.66;;;1.29;46.71
62055;BME280;48653;51.742;-1.256;2023-03-11T00:47:22;100332.26;;;1.29;46.72
62055;BME280;48653;51.742;-1.256;2023-03-11T00:49:47;100341.23;;;0.67;47.28
62055;BME280;48653;51.742;-1.256;2023-03-11T00:52:13;100348.37;;;0.82;46.89
62055;BME280;48653;51.742;-1.256;2023-03-11T00:54:39;100353.75;;;0.67;47.24
62055;BME280;48653;51.742;-1.256;2023-03-11T00:57:04;100342.50;;;0.71;47.41
62055;BME280;48653;51.742;-1.256;2023-03-11T00:59:29;100333.30;;;0.90;46.70
62055;BME280;48653;51.742;-1.256;2023-03-11T01:01:54;100332.09;;;0.63;46.62
62055;BME280;48653;51.742;-1.256;2023-03-11T01:04:20;100327.92;;;0.98;46.55
62055;BME280;48653;51.742;-1.256;2023-03-11T01:06:46;100329.09;;;1.05;46.75
62055;BME280;48653;51.742;-1.256;2023-03-11T01:09:11;100330.97;;;0.64;47.01
62055;BME280;48653;51.742;-1.256;2023-03-11T01:11:36;100332.92;;;0.54;47.32
62055;BME280;48653;51.742;-1.256;2023-03-11T01:14:02;100338.70;;;0.51;47.13
62055;BME280;48653;51.742;-1.256;2023-03-11T01:16:27;100342.45;;;0.17;47.90
62055;BME280;48653;51.742;-1.256;2023-03-11T01:18:53;100341.41;;;0.26;48.53
62055;BME280;48653;51.742;-1.256;2023-03-11T01:21:19;100337.58;;;0.60;47.29
62055;BME280;48653;51.742;-1.256;2023-03-11T01:23:44;100337.21;;;0.68;47.61
62055;BME280;48653;51.742;-1.256;2023-03-11T01:26:09;100337.51;;;0.27;47.61
62055;BME280;48653;51.742;-1.256;2023-03-11T01:28:35;100334.20;;;0.43;47.12
62055;BME280;48653;51.742;-1.256;2023-03-11T01:31:00;100333.03;;;0.16;47.98
62055;BME280;48653;51.742;-1.256;2023-03-11T01:33:26;100335.15;;;0.34;47.55
62055;BME280;48653;51.742;-1.256;2023-03-11T01:35:51;100338.40;;;0.51;47.11
62055;BME280;48653;51.742;-1.256;2023-03-11T01:38:16;100339.48;;;0.19;48.35
62055;BME280;48653;51.742;-1.256;2023-03-11T01:40:43;100339.42;;;0.18;47.43
62055;BME280;48653;51.742;-1.256;2023-03-11T01:45:39;100340.53;;;0.67;47.30
62055;BME280;48653;51.742;-1.256;2023-03-11T01:47:58;100337.55;;;0.04;47.72
62055;BME280;48653;51.742;-1.256;2023-03-11T01:50:24;100327.94;;;0.31;47.44
62055;BME280;48653;51.742;-1.256;2023-03-11T01:52:48;100327.00;;;0.73;46.94
62055;BME280;48653;51.742;-1.256;2023-03-11T01:55:15;100324.39;;;0.56;47.16
62055;BME280;48653;51.742;-1.256;2023-03-11T01:57:40;100325.81;;;0.18;47.31
62055;BME280;48653;51.742;-1.256;2023-03-11T02:00:07;100320.67;;;0.19;47.05
62055;BME280;48653;51.742;-1.256;2023-03-11T02:02:33;100315.24;;;0.12;47.37
62055;BME280;48653;51.742;-1.256;2023-03-11T02:04:56;100310.82;;;-0.07;47.51
62055;BME280;48653;51.742;-1.256;2023-03-11T02:07:21;100307.72;;;0.63;46.94
62055;BME280;48653;51.742;-1.256;2023-03-11T02:09:47;100307.49;;;0.75;46.85
62055;BME280;48653;51.742;-1.256;2023-03-11T02:12:13;100304.37;;;0.18;46.93
62055;BME280;48653;51.742;-1.256;2023-03-11T02:14:39;100302.17;;;0.59;47.02
62055;BME280;48653;51.742;-1.256;2023-03-11T02:17:03;100292.95;;;0.27;47.15
62055;BME280;48653;51.742;-1.256;2023-03-11T02:19:34;100286.26;;;-0.47;48.34
62055;BME280;48653;51.742;-1.256;2023-03-11T02:21:55;100289.73;;;-0.29;47.84
62055;BME280;48653;51.742;-1.256;2023-03-11T02:24:25;100288.18;;;0.13;47.68
62055;BME280;48653;51.742;-1.256;2023-03-11T02:26:52;100284.69;;;-0.76;48.62
62055;BME280;48653;51.742;-1.256;2023-03-11T02:29:11;100283.93;;;0.02;47.46
62055;BME280;48653;51.742;-1.256;2023-03-11T02:31:37;100289.32;;;-0.38;47.60
62055;BME280;48653;51.742;-1.256;2023-03-11T02:34:03;100293.64;;;0.10;47.39
62055;BME280;48653;51.742;-1.256;2023-03-11T02:36:33;100292.35;;;0.11;47.36
62055;BME280;48653;51.742;-1.256;2023-03-11T02:38:52;100288.37;;;0.12;47.29
62055;BME280;48653;51.742;-1.256;2023-03-11T02:41:18;100287.19;;;-0.33;47.77
62055;BME280;48653;51.742;-1.256;2023-03-11T02:43:45;100286.95;;;0.18;47.30
62055;BME280;48653;51.742;-1.256;2023-03-11T02:46:11;100290.62;;;-0.26;47.64
62055;BME280;48653;51.742;-1.256;2023-03-11T02:48:35;100292.20;;;-0.05;47.57
62055;BME280;48653;51.742;-1.256;2023-03-11T02:51:01;100288.73;;;-0.23;48.00
62055;BME280;48653;51.742;-1.256;2023-03-11T02:53:29;100283.16;;;-0.08;47.53
62055;BME280;48653;51.742;-1.256;2023-03-11T02:55:51;100276.87;;;-0.26;47.93
62055;BME280;48653;51.742;-1.256;2023-03-11T02:58:17;100274.50;;;-0.02;47.36
62055;BME280;48653;51.742;-1.256;2023-03-11T03:00:43;100272.85;;;0.06;47.13
62055;BME280;48653;51.742;-1.256;2023-03-11T03:03:08;100270.98;;;0.02;47.16
62055;BME280;48653;51.742;-1.256;2023-03-11T03:05:33;100266.76;;;-0.13;47.19
62055;BME280;48653;51.742;-1.256;2023-03-11T03:07:58;100267.06;;;-0.18;47.19
62055;BME280;48653;51.742;-1.256;2023-03-11T03:10:24;100263.77;;;-0.48;48.04
62055;BME280;48653;51.742;-1.256;2023-03-11T03:12:50;100262.37;;;-0.40;47.80
62055;BME280;48653;51.742;-1.256;2023-03-11T03:15:15;100256.89;;;-0.20;47.21
62055;BME280;48653;51.742;-1.256;2023-03-11T03:17:41;100253.18;;;-0.44;47.21
62055;BME280;48653;51.742;-1.256;2023-03-11T03:20:08;100255.03;;;-0.35;47.32
62055;BME280;48653;51.742;-1.256;2023-03-11T03:22:32;100262.45;;;-0.37;47.37
62055;BME280;48653;51.742;-1.256;2023-03-11T03:24:57;100267.92;;;-0.31;47.56
62055;BME280;48653;51.742;-1.256;2023-03-11T03:27:23;100266.55;;;-0.15;47.28
62055;BME280;48653;51.742;-1.256;2023-03-11T03:29:48;100268.82;;;-0.08;47.05
62055;BME280;48653;51.742;-1.256;2023-03-11T03:32:14;100265.40;;;-0.46;48.20
62055;BME280;48653;51.742;-1.256;2023-03-11T03:34:39;100256.72;;;-0.31;47.98
62055;BME280;48653;51.742;-1.256;2023-03-11T03:37:04;100253.45;;;-0.58;49.07
62055;BME280;48653;51.742;-1.256;2023-03-11T03:39:31;100255.33;;;-0.44;49.04
62055;BME280;48653;51.742;-1.256;2023-03-11T03:41:56;100255.11;;;-0.07;47.83
62055;BME280;48653;51.742;-1.256;2023-03-11T03:44:22;100267.09;;;-0.19;48.45
62055;BME280;48653;51.742;-1.256;2023-03-11T03:46:47;100272.80;;;-0.01;48.70
62055;BME280;48653;51.742;-1.256;2023-03-11T03:49:13;100270.29;;;-0.00;48.25
62055;BME280;48653;51.742;-1.256;2023-03-11T03:51:38;100269.05;;;-0.29;49.55
62055;BME280;48653;51.742;-1.256;2023-03-11T03:54:04;100267.68;;;-0.35;49.14
62055;BME280;48653;51.742;-1.256;2023-03-11T03:56:29;100266.71;;;0.17;48.36
62055;BME280;48653;51.742;-1.256;2023-03-11T03:58:55;100258.38;;;0.09;48.93
62055;BME280;48653;51.742;-1.256;2023-03-11T04:01:20;100262.67;;;-0.18;49.26
62055;BME280;48653;51.742;-1.256;2023-03-11T04:03:45;100266.63;;;0.18;48.50
62055;BME280;48653;51.742;-1.256;2023-03-11T04:06:16;100272.10;;;0.43;48.73
62055;BME280;48653;51.742;-1.256;2023-03-11T04:08:37;100265.87;;;0.49;48.78
62055;BME280;48653;51.742;-1.256;2023-03-11T04:11:02;100263.16;;;0.31;48.33
62055;BME280;48653;51.742;-1.256;2023-03-11T04:13:27;100274.54;;;0.60;48.84
62055;BME280;48653;51.742;-1.256;2023-03-11T04:15:53;100274.21;;;0.23;48.64
62055;BME280;48653;51.742;-1.256;2023-03-11T04:18:18;100283.20;;;0.11;49.15
62055;BME280;48653;51.742;-1.256;2023-03-11T04:20:44;100288.95;;;0.43;48.53
62055;BME280;48653;51.742;-1.256;2023-03-11T04:23:09;100287.61;;;0.37;48.64
62055;BME280;48653;51.742;-1.256;2023-03-11T04:25:34;100287.92;;;0.24;48.91
62055;BME280;48653;51.742;-1.256;2023-03-11T04:27:59;100284.20;;;0.41;48.62
62055;BME280;48653;51.742;-1.256;2023-03-11T04:30:25;100290.56;;;0.20;49.11
62055;BME280;48653;51.742;-1.256;2023-03-11T04:32:51;100294.98;;;0.31;49.27
62055;BME280;48653;51.742;-1.256;2023-03-11T04:35:16;100296.64;;;0.34;48.97
62055;BME280;48653;51.742;-1.256;2023-03-11T04:37:41;100297.41;;;0.77;49.26
62055;BME280;48653;51.742;-1.256;2023-03-11T04:40:08;100296.66;;;0.33;49.37
62055;BME280;48653;51.742;-1.256;2023-03-11T04:42:32;100289.58;;;0.20;49.75
62055;BME280;48653;51.742;-1.256;2023-03-11T04:44:58;100286.15;;;0.46;49.41
62055;BME280;48653;51.742;-1.256;2023-03-11T04:47:23;100286.59;;;0.73;48.52
62055;BME280;48653;51.742;-1.256;2023-03-11T04:49:49;100289.39;;;0.68;48.76
62055;BME280;48653;51.742;-1.256;2023-03-11T04:52:14;100292.52;;;0.88;48.70
62055;BME280;48653;51.742;-1.256;2023-03-11T04:54:40;100297.52;;;0.45;49.07
62055;BME280;48653;51.742;-1.256;2023-03-11T04:57:05;100298.99;;;0.75;48.83
62055;BME280;48653;51.742;-1.256;2023-03-11T04:59:31;100306.07;;;0.80;48.82
62055;BME280;48653;51.742;-1.256;2023-03-11T05:01:57;100313.63;;;0.83;48.57
62055;BME280;48653;51.742;-1.256;2023-03-11T05:04:22;100314.26;;;0.84;48.35
62055;BME280;48653;51.742;-1.256;2023-03-11T05:06:47;100313.25;;;0.73;48.77
62055;BME280;48653;51.742;-1.256;2023-03-11T05:09:13;100322.13;;;0.58;48.71
62055;BME280;48653;51.742;-1.256;2023-03-11T05:11:38;100327.62;;;0.75;48.56
62055;BME280;48653;51.742;-1.256;2023-03-11T05:14:04;100330.93;;;0.82;48.37
62055;BME280;48653;51.742;-1.256;2023-03-11T05:16:29;100324.40;;;0.73;48.48
62055;BME280;48653;51.742;-1.256;2023-03-11T05:18:55;100316.22;;;0.92;48.54
62055;BME280;48653;51.742;-1.256;2023-03-11T05:21:21;100319.78;;;0.90;48.64
62055;BME280;48653;51.742;-1.256;2023-03-11T05:23:46;100327.66;;;0.58;48.82
62055;BME280;48653;51.742;-1.256;2023-03-11T05:26:11;100328.52;;;1.11;48.51
62055;BME280;48653;51.742;-1.256;2023-03-11T05:28:37;100312.27;;;1.14;48.48
62055;BME280;48653;51.742;-1.256;2023-03-11T05:31:06;100315.83;;;1.15;48.17
62055;BME280;48653;51.742;-1.256;2023-03-11T05:33:27;100314.59;;;0.84;48.62
62055;BME280;48653;51.742;-1.256;2023-03-11T05:35:53;100311.48;;;0.94;49.25
62055;BME280;48653;51.742;-1.256;2023-03-11T05:38:18;100315.42;;;0.89;49.21
62055;BME280;48653;51.742;-1.256;2023-03-11T05:40:44;100321.55;;;0.64;49.59
62055;BME280;48653;51.742;-1.256;2023-03-11T05:43:09;100332.16;;;0.67;49.50
62055;BME280;48653;51.742;-1.256;2023-03-11T05:45:35;100333.72;;;0.83;49.38
62055;BME280;48653;51.742;-1.256;2023-03-11T05:48:01;100331.78;;;1.33;48.75
62055;BME280;48653;51.742;-1.256;2023-03-11T05:50:26;100335.81;;;1.02;49.38
62055;BME280;48653;51.742;-1.256;2023-03-11T05:52:51;100333.89;;;0.85;49.10
62055;BME280;48653;51.742;-1.256;2023-03-11T05:55:17;100340.56;;;0.88;49.18
62055;BME280;48653;51.742;-1.256;2023-03-11T05:57:42;100340.65;;;1.35;48.54
62055;BME280;48653;51.742;-1.256;2023-03-11T06:00:09;100341.91;;;1.27;48.15
62055;BME280;48653;51.742;-1.256;2023-03-11T06:02:33;100335.95;;;1.32;47.86
62055;BME280;48653;51.742;-1.256;2023-03-11T06:04:58;100333.37;;;0.98;48.44
62055;BME280;48653;51.742;-1.256;2023-03-11T06:07:23;100328.68;;;1.18;48.50
62055;BME280;48653;51.742;-1.256;2023-03-11T06:09:49;100326.37;;;0.98;48.55
62055;BME280;48653;51.742;-1.256;2023-03-11T06:12:15;100329.39;;;0.92;48.78
62055;BME280;48653;51.742;-1.256;2023-03-11T06:14:40;100328.72;;;1.25;48.66
62055;BME280;48653;51.742;-1.256;2023-03-11T06:17:05;100330.23;;;1.05;48.83
62055;BME280;48653;51.742;-1.256;2023-03-11T06:19:30;100343.41;;;1.36;48.82
62055;BME280;48653;51.742;-1.256;2023-03-11T06:21:56;100353.95;;;1.21;49.43
62055;BME280;48653;51.742;-1.256;2023-03-11T06:24:22;100356.46;;;1.00;49.15
62055;BME280;48653;51.742;-1.256;2023-03-11T06:26:50;100365.22;;;0.96;49.39
62055;BME280;48653;51.742;-1.256;2023-03-11T06:29:13;100376.65;;;0.81;49.79
62055;BME280;48653;51.742;-1.256;2023-03-11T06:31:38;100374.43;;;1.21;49.10
62055;BME280;48653;51.742;-1.256;2023-03-11T06:34:03;100377.50;;;1.39;48.79
62055;BME280;48653;51.742;-1.256;2023-03-11T06:36:29;100383.06;;;1.11;49.59
62055;BME280;48653;51.742;-1.256;2023-03-11T06:38:55;100379.31;;;1.62;48.97
62055;BME280;48653;51.742;-1.256;2023-03-11T06:41:20;100383.96;;;1.85;48.64
62055;BME280;48653;51.742;-1.256;2023-03-11T06:43:46;100387.83;;;1.64;49.00
62055;BME280;48653;51.742;-1.256;2023-03-11T06:46:14;100386.12;;;1.40;49.02
62055;BME280;48653;51.742;-1.256;2023-03-11T06:48:37;100387.01;;;1.53;48.87
62055;BME280;48653;51.742;-1.256;2023-03-11T06:51:02;100379.13;;;1.33;49.51
62055;BME280;48653;51.742;-1.256;2023-03-11T06:53:28;100373.41;;;1.33;48.86
62055;BME280;48653;51.742;-1.256;2023-03-11T06:55:59;100369.07;;;1.47;49.05
62055;BME280;48653;51.742;-1.256;2023-03-11T06:58:18;100370.33;;;1.58;49.02
62055;BME280;48653;51.742;-1.256;2023-03-11T07:00:43;100362.33;;;1.30;50.02
62055;BME280;48653;51.742;-1.256;2023-03-11T07:03:08;100359.80;;;1.45;49.90
62055;BME280;48653;51.742;-1.256;2023-03-11T07:05:34;100360.89;;;1.54;49.56
62055;BME280;48653;51.742;-1.256;2023-03-11T07:07:59;100359.72;;;1.36;49.85
62055;BME280;48653;51.742;-1.256;2023-03-11T07:10:24;100367.82;;;1.29;49.74
62055;BME280;48653;51.742;-1.256;2023-03-11T07:12:50;100364.69;;;1.61;49.55
62055;BME280;48653;51.742;-1.256;2023-03-11T07:15:15;100361.11;;;1.61;49.82
62055;BME280;48653;51.742;-1.256;2023-03-11T07:17:40;100366.37;;;1.47;49.69
62055;BME280;48653;51.742;-1.256;2023-03-11T07:20:07;100366.19;;;1.61;49.47
62055;BME280;48653;51.742;-1.256;2023-03-11T07:22:32;100370.38;;;1.56;49.44
62055;BME280;48653;51.742;-1.256;2023-03-11T07:24:58;100374.03;;;1.63;49.63
62055;BME280;48653;51.742;-1.256;2023-03-11T07:27:22;100372.09;;;1.48;49.53
62055;BME280;48653;51.742;-1.256;2023-03-11T07:29:47;100370.72;;;1.72;49.20
62055;BME280;48653;51.742;-1.256;2023-03-11T07:32:12;100377.86;;;2.25;48.73
62055;BME280;48653;51.742;-1.256;2023-03-11T07:34:38;100383.66;;;1.75;49.12
62055;BME280;48653;51.742;-1.256;2023-03-11T07:37:04;100386.59;;;1.70;49.15
62055;BME280;48653;51.742;-1.256;2023-03-11T07:39:29;100388.41;;;2.07;48.88
62055;BME280;48653;51.742;-1.256;2023-03-11T07:41:55;100382.24;;;1.99;48.89
62055;BME280;48653;51.742;-1.256;2023-03-11T07:44:20;100379.00;;;2.13;48.71
62055;BME280;48653;51.742;-1.256;2023-03-11T07:46:46;100377.03;;;2.11;48.90
62055;BME280;48653;51.742;-1.256;2023-03-11T07:49:11;100381.84;;;2.36;48.76
62055;BME280;48653;51.742;-1.256;2023-03-11T07:51:38;100377.89;;;2.46;48.73
62055;BME280;48653;51.742;-1.256;2023-03-11T07:54:03;100384.17;;;2.44;48.61
62055;BME280;48653;51.742;-1.256;2023-03-11T07:56:29;100381.33;;;2.58;48.50
62055;BME280;48653;51.742;-1.256;2023-03-11T07:58:53;100373.13;;;2.81;47.93
62055;BME280;48653;51.742;-1.256;2023-03-11T08:01:20;100367.60;;;2.26;48.71
62055;BME280;48653;51.742;-1.256;2023-03-11T08:03:46;100366.73;;;2.83;48.42
62055;BME280;48653;51.742;-1.256;2023-03-11T08:06:11;100365.38;;;2.72;48.50
62055;BME280;48653;51.742;-1.256;2023-03-11T08:08:36;100357.83;;;2.77;48.02
62055;BME280;48653;51.742;-1.256;2023-03-11T08:11:02;100357.28;;;2.63;48.27
62055;BME280;48653;51.742;-1.256;2023-03-11T08:13:26;100355.00;;;3.14;47.56
62055;BME280;48653;51.742;-1.256;2023-03-11T08:15:52;100358.29;;;2.78;48.39
62055;BME280;48653;51.742;-1.256;2023-03-11T08:18:18;100364.77;;;2.80;48.46
62055;BME280;48653;51.742;-1.256;2023-03-11T08:20:43;100361.74;;;3.03;48.23
62055;BME280;48653;51.742;-1.256;2023-03-11T08:23:08;100359.32;;;2.90;48.22
62055;BME280;48653;51.742;-1.256;2023-03-11T08:25:37;100357.88;;;2.74;47.16
62055;BME280;48653;51.742;-1.256;2023-03-11T08:28:00;100359.58;;;2.93;47.85
62055;BME280;48653;51.742;-1.256;2023-03-11T08:30:25;100366.61;;;2.95;47.34
62055;BME280;48653;51.742;-1.256;2023-03-11T08:32:51;100375.90;;;3.20;47.51
62055;BME280;48653;51.742;-1.256;2023-03-11T08:35:16;100383.24;;;2.99;45.86
62055;BME280;48653;51.742;-1.256;2023-03-11T08:37:41;100387.40;;;2.92;46.68
62055;BME280;48653;51.742;-1.256;2023-03-11T08:40:08;100388.66;;;3.30;46.88
62055;BME280;48653;51.742;-1.256;2023-03-11T08:42:31;100390.85;;;3.77;46.39
62055;BME280;48653;51.742;-1.256;2023-03-11T08:44:57;100393.74;;;3.72;46.15
62055;BME280;48653;51.742;-1.256;2023-03-11T08:47:22;100394.18;;;3.99;45.89
62055;BME280;48653;51.742;-1.256;2023-03-11T08:49:47;100399.07;;;3.97;45.38
62055;BME280;48653;51.742;-1.256;2023-03-11T08:52:13;100399.06;;;4.30;44.51
62055;BME280;48653;51.742;-1.256;2023-03-11T08:54:38;100403.05;;;3.47;44.66
62055;BME280;48653;51.742;-1.256;2023-03-11T08:57:03;100404.67;;;4.17;44.28
62055;BME280;48653;51.742;-1.256;2023-03-11T08:59:28;100402.27;;;4.36;43.23
62055;BME280;48653;51.742;-1.256;2023-03-11T09:01:53;100396.03;;;4.15;44.07
62055;BME280;48653;51.742;-1.256;2023-03-11T09:04:19;100392.56;;;3.58;44.24
62055;BME280;48653;51.742;-1.256;2023-03-11T09:06:44;100385.56;;;3.98;44.21
62055;BME280;48653;51.742;-1.256;2023-03-11T09:09:11;100382.54;;;3.64;44.39
62055;BME280;48653;51.742;-1.256;2023-03-11T09:11:35;100387.60;;;3.74;44.43
62055;BME280;48653;51.742;-1.256;2023-03-11T09:14:00;100391.19;;;4.41;44.13
62055;BME280;48653;51.742;-1.256;2023-03-11T09:16:25;100390.31;;;4.44;43.36
62055;BME280;48653;51.742;-1.256;2023-03-11T09:18:50;100391.06;;;3.46;43.69
62055;BME280;48653;51.742;-1.256;2023-03-11T09:21:16;100388.35;;;4.05;44.80
62055;BME280;48653;51.742;-1.256;2023-03-11T09:23:40;100383.54;;;3.89;44.39
62055;BME280;48653;51.742;-1.256;2023-03-11T09:26:06;100382.57;;;4.14;43.63
62055;BME280;48653;51.742;-1.256;2023-03-11T09:28:31;100379.05;;;4.15;43.82
62055;BME280;48653;51.742;-1.256;2023-03-11T09:30:56;100380.00;;;4.15;42.83
62055;BME280;48653;51.742;-1.256;2023-03-11T09:33:22;100384.95;;;4.51;43.95
62055;BME280;48653;51.742;-1.256;2023-03-11T09:35:48;100385.10;;;4.45;43.69
62055;BME280;48653;51.742;-1.256;2023-03-11T09:38:13;100382.23;;;4.58;43.55
62055;BME280;48653;51.742;-1.256;2023-03-11T09:40:49;100377.44;;;4.46;42.46
62055;BME280;48653;51.742;-1.256;2023-03-11T09:43:10;100373.83;;;5.27;42.50
62055;BME280;48653;51.742;-1.256;2023-03-11T09:45:31;100372.78;;;5.23;42.42
62055;BME280;48653;51.742;-1.256;2023-03-11T09:48:01;100369.71;;;5.69;43.33
62055;BME280;48653;51.742;-1.256;2023-03-11T09:50:24;100370.64;;;5.84;40.19
62055;BME280;48653;51.742;-1.256;2023-03-11T09:52:47;100366.62;;;5.41;39.98
62055;BME280;48653;51.742;-1.256;2023-03-11T09:55:21;100359.96;;;5.51;40.43
62055;BME280;48653;51.742;-1.256;2023-03-11T09:57:36;100354.03;;;5.72;40.42
62055;BME280;48653;51.742;-1.256;2023-03-11T10:00:01;100359.61;;;4.17;41.63
62055;BME280;48653;51.742;-1.256;2023-03-11T10:02:25;100352.41;;;6.17;39.49
62055;BME280;48653;51.742;-1.256;2023-03-11T10:04:54;100354.51;;;5.67;38.70
62055;BME280;48653;51.742;-1.256;2023-03-11T10:07:19;100352.72;;;5.55;37.08
62055;BME280;48653;51.742;-1.256;2023-03-11T10:09:46;100351.77;;;5.60;37.82
62055;BME280;48653;51.742;-1.256;2023-03-11T10:12:17;100352.22;;;6.39;36.44
62055;BME280;48653;51.742;-1.256;2023-03-11T10:14:43;100349.03;;;6.13;36.77
62055;BME280;48653;51.742;-1.256;2023-03-11T10:17:02;100349.94;;;5.13;37.08
62055;BME280;48653;51.742;-1.256;2023-03-11T10:19:31;100345.14;;;6.69;36.88
62055;BME280;48653;51.742;-1.256;2023-03-11T10:21:55;100344.53;;;6.63;38.04
62055;BME280;48653;51.742;-1.256;2023-03-11T10:24:26;100346.86;;;7.09;37.92
62055;BME280;48653;51.742;-1.256;2023-03-11T10:26:41;100344.88;;;7.49;36.90
62055;BME280;48653;51.742;-1.256;2023-03-11T10:29:10;100335.68;;;7.05;37.31
62055;BME280;48653;51.742;-1.256;2023-03-11T10:31:33;100331.23;;;8.46;36.35
62055;BME280;48653;51.742;-1.256;2023-03-11T10:33:56;100334.04;;;8.71;36.22
62055;BME280;48653;51.742;-1.256;2023-03-11T10:36:21;100327.29;;;8.12;35.42
62055;BME280;48653;51.742;-1.256;2023-03-11T10:38:47;100320.57;;;7.86;36.68
62055;BME280;48653;51.742;-1.256;2023-03-11T10:41:15;100320.85;;;7.35;37.25
62055;BME280;48653;51.742;-1.256;2023-03-11T10:43:37;100320.56;;;8.07;37.63
62055;BME280;48653;51.742;-1.256;2023-03-11T10:46:02;100326.67;;;8.35;35.54
62055;BME280;48653;51.742;-1.256;2023-03-11T10:48:25;100333.94;;;7.44;36.69
62055;BME280;48653;51.742;-1.256;2023-03-11T10:50:55;100330.75;;;8.17;37.25
62055;BME280;48653;51.742;-1.256;2023-03-11T10:53:18;100326.36;;;7.67;37.75
62055;BME280;48653;51.742;-1.256;2023-03-11T10:55:46;100330.18;;;7.75;36.53
62055;BME280;48653;51.742;-1.256;2023-03-11T10:58:12;100326.86;;;6.97;37.70
62055;BME280;48653;51.742;-1.256;2023-03-11T11:00:32;100324.02;;;7.89;37.61
62055;BME280;48653;51.742;-1.256;2023-03-11T11:02:57;100322.05;;;7.73;37.85
62055;BME280;48653;51.742;-1.256;2023-03-11T11:05:28;100321.84;;;6.09;39.59
62055;BME280;48653;51.742;-1.256;2023-03-11T11:07:48;100323.04;;;7.28;39.65
62055;BME280;48653;51.742;-1.256;2023-03-11T11:10:17;100315.63;;;7.34;38.26
62055;BME280;48653;51.742;-1.256;2023-03-11T11:12:50;100320.07;;;7.91;38.57
62055;BME280;48653;51.742;-1.256;2023-03-11T11:15:03;100316.93;;;8.47;37.35
62055;BME280;48653;51.742;-1.256;2023-03-11T11:17:30;100316.23;;;8.64;38.36
62055;BME280;48653;51.742;-1.256;2023-03-11T11:19:54;100320.91;;;7.36;39.08
62055;BME280;48653;51.742;-1.256;2023-03-11T11:22:20;100319.42;;;8.34;37.58
62055;BME280;48653;51.742;-1.256;2023-03-11T11:24:45;100325.06;;;8.52;39.00
62055;BME280;48653;51.742;-1.256;2023-03-11T11:27:15;100317.29;;;9.10;37.66
62055;BME280;48653;51.742;-1.256;2023-03-11T11:29:34;100323.28;;;7.87;37.31
62055;BME280;48653;51.742;-1.256;2023-03-11T11:32:14;100318.76;;;8.59;38.02
62055;BME280;48653;51.742;-1.256;2023-03-11T11:34:30;100314.21;;;9.18;37.09
62055;BME280;48653;51.742;-1.256;2023-03-11T11:36:49;100313.39;;;8.74;36.76
62055;BME280;48653;51.742;-1.256;2023-03-11T11:39:15;100311.46;;;8.55;37.12
62055;BME280;48653;51.742;-1.256;2023-03-11T11:41:39;100303.75;;;8.11;36.76
62055;BME280;48653;51.742;-1.256;2023-03-11T11:44:06;100300.83;;;7.47;39.58
62055;BME280;48653;51.742;-1.256;2023-03-11T11:46:36;100301.94;;;7.92;36.93
62055;BME280;48653;51.742;-1.256;2023-03-11T11:49:04;100296.44;;;8.33;36.74
62055;BME280;48653;51.742;-1.256;2023-03-11T11:51:23;100298.64;;;8.79;36.02
62055;BME280;48653;51.742;-1.256;2023-03-11T11:53:50;100297.01;;;9.44;36.15
62055;BME280;48653;51.742;-1.256;2023-03-11T11:56:11;100296.56;;;9.66;34.73
62055;BME280;48653;51.742;-1.256;2023-03-11T11:58:35;100298.04;;;9.17;35.47
62055;BME280;48653;51.742;-1.256;2023-03-11T12:01:12;100293.82;;;9.51;34.89
62055;BME280;48653;51.742;-1.256;2023-03-11T12:03:38;100294.59;;;10.07;35.36
62055;BME280;48653;51.742;-1.256;2023-03-11T12:05:54;100298.46;;;9.52;35.09
62055;BME280;48653;51.742;-1.256;2023-03-11T12:08:18;100288.77;;;9.98;34.40
62055;BME280;48653;51.742;-1.256;2023-03-11T12:10:46;100297.35;;;9.57;35.53
62055;BME280;48653;51.742;-1.256;2023-03-11T12:13:20;100298.47;;;9.71;35.78
62055;BME280;48653;51.742;-1.256;2023-03-11T12:15:36;100299.98;;;8.91;37.53
62055;BME280;48653;51.742;-1.256;2023-03-11T12:18:01;100283.97;;;9.72;36.18
62055;BME280;48653;51.742;-1.256;2023-03-11T12:20:28;100278.30;;;10.90;34.67
62055;BME280;48653;51.742;-1.256;2023-03-11T12:23:00;100273.09;;;9.06;36.80
62055;BME280;48653;51.742;-1.256;2023-03-11T12:25:20;100274.62;;;8.30;36.86
62055;BME280;48653;51.742;-1.256;2023-03-11T12:27:42;100268.95;;;8.56;37.37
62055;BME280;48653;51.742;-1.256;2023-03-11T12:30:04;100270.13;;;7.65;38.44
62055;BME280;48653;51.742;-1.256;2023-03-11T12:32:32;100265.38;;;9.09;38.36
62055;BME280;48653;51.742;-1.256;2023-03-11T12:34:52;100270.86;;;9.47;36.35
62055;BME280;48653;51.742;-1.256;2023-03-11T12:37:20;100273.77;;;9.28;34.96
62055;BME280;48653;51.742;-1.256;2023-03-11T12:39:43;100266.40;;;9.21;35.95
62055;BME280;48653;51.742;-1.256;2023-03-11T12:42:14;100268.05;;;8.98;35.52